Track Сапожников Тимофей

Time Latitude Longitude Accuracy (66% radius in meters) Altitude (meters) Speed (km/hour) Bearing (degrees) Battery (%) GPS flag
09:05:42 58.487178 49.755111 0 0 0 0 1 delete
09:05:41 58.487159 49.755159 0 0 0 0 1 delete
09:05:40 58.487139 49.755204 0 0 0 0 1 delete
09:05:39 58.487118 49.755245 0 0 0 0 1 delete
09:05:38 58.487096 49.755287 0 0 0 0 1 delete
09:05:37 58.487073 49.755325 0 0 0 0 1 delete
09:05:36 58.487051 49.755370 0 0 0 0 1 delete
09:05:35 58.487029 49.755422 0 0 0 0 1 delete
09:05:34 58.487006 49.755488 0 0 0 0 1 delete
09:05:33 58.486979 49.755560 0 0 0 0 1 delete
09:05:32 58.486950 49.755632 0 0 0 0 1 delete
09:05:31 58.486919 49.755698 0 0 0 0 1 delete
09:05:30 58.486886 49.755757 0 0 0 0 1 delete
09:05:29 58.486857 49.755814 0 0 0 0 1 delete
09:05:28 58.486832 49.755873 0 0 0 0 1 delete
09:05:27 58.486812 49.755935 0 0 0 0 1 delete
09:05:26 58.486792 49.755997 0 0 0 0 1 delete
09:05:25 58.486772 49.756057 0 0 0 0 1 delete
09:05:24 58.486751 49.756117 0 0 0 0 1 delete
09:05:23 58.486730 49.756176 0 0 0 0 1 delete
09:05:22 58.486709 49.756240 0 0 0 0 1 delete
09:05:21 58.486688 49.756307 0 0 0 0 1 delete
09:05:20 58.486666 49.756377 0 0 0 0 1 delete
09:05:19 58.486644 49.756439 0 0 0 0 1 delete
09:05:18 58.486618 49.756501 0 0 0 0 1 delete
09:05:17 58.486592 49.756555 0 0 0 0 1 delete
09:05:16 58.486563 49.756611 0 0 0 0 1 delete
09:05:15 58.486537 49.756663 0 0 0 0 1 delete
09:05:14 58.486508 49.756717 0 0 0 0 1 delete
09:05:13 58.486481 49.756770 0 0 0 0 1 delete
09:05:12 58.486455 49.756824 0 0 0 0 1 delete
09:05:11 58.486433 49.756880 0 0 0 0 1 delete
09:05:10 58.486416 49.756935 0 0 0 0 1 delete
09:05:09 58.486402 49.756993 0 0 0 0 1 delete
09:05:08 58.486389 49.757056 0 0 0 0 1 delete
09:05:07 58.486375 49.757122 0 0 0 0 1 delete
09:05:06 58.486356 49.757188 0 0 0 0 1 delete
09:05:05 58.486329 49.757250 0 0 0 0 1 delete
09:05:04 58.486298 49.757312 0 0 0 0 1 delete
09:05:03 58.486271 49.757376 0 0 0 0 1 delete
09:05:02 58.486247 49.757438 0 0 0 0 1 delete
09:05:01 58.486222 49.757493 0 0 0 0 1 delete
09:05:00 58.486196 49.757546 0 0 0 0 1 delete
09:04:59 58.486172 49.757599 0 0 0 0 1 delete
09:04:58 58.486152 49.757653 0 0 0 0 1 delete
09:04:57 58.486134 49.757702 0 0 0 0 1 delete
09:04:56 58.486117 49.757751 0 0 0 0 1 delete
09:04:55 58.486101 49.757808 0 0 0 0 1 delete
09:04:54 58.486085 49.757868 0 0 0 0 1 delete
09:04:53 58.486067 49.757933 0 0 0 0 1 delete